createdAt,value
2019-03-05T00:02:18.003Z,54.03
2019-03-05T00:04:54.067Z,54.20
2019-03-05T00:07:29.809Z,53.76
2019-03-05T00:10:15.287Z,53.79
2019-03-05T00:12:51.443Z,54.09
2019-03-05T00:15:30.996Z,54.11
2019-03-05T00:18:06.945Z,54.29
2019-03-05T00:20:42.761Z,53.12
2019-03-05T00:23:46.816Z,53.24
2019-03-05T00:26:25.948Z,53.73
2019-03-05T00:29:11.638Z,53.68
2019-03-05T00:31:48.822Z,53.97
2019-03-05T00:34:37.772Z,53.69
2019-03-05T00:37:16.720Z,53.88
2019-03-05T00:40:19.797Z,54.19
2019-03-05T00:43:03.541Z,53.97
2019-03-05T00:45:42.349Z,54.10
2019-03-05T00:48:36.234Z,54.04
2019-03-05T00:51:27.249Z,53.92
2019-03-05T00:54:24.092Z,53.50
2019-03-05T00:57:05.772Z,53.58
2019-03-05T01:00:03.556Z,53.75
2019-03-05T01:03:00.504Z,53.61
2019-03-05T01:05:56.014Z,53.57
2019-03-05T01:08:32.371Z,53.55
2019-03-05T01:11:09.047Z,53.40
2019-03-05T01:13:45.112Z,53.36
2019-03-05T01:16:22.504Z,53.09
2019-03-05T01:18:58.351Z,53.24
2019-03-05T01:21:34.099Z,52.95
2019-03-05T01:24:09.952Z,52.81
2019-03-05T01:26:45.808Z,52.67
2019-03-05T01:29:22.794Z,52.29
2019-03-05T01:32:00.182Z,52.16
2019-03-05T01:34:37.566Z,51.87
2019-03-05T01:37:13.420Z,51.65
2019-03-05T01:39:50.917Z,51.62
2019-03-05T01:42:26.766Z,51.81
2019-03-05T01:45:02.633Z,51.95
2019-03-05T01:47:38.691Z,52.32
2019-03-05T01:50:14.646Z,53.07
2019-03-05T01:52:50.506Z,53.77
2019-03-05T01:55:26.345Z,54.77
2019-03-05T01:58:02.196Z,55.58
2019-03-05T02:00:38.985Z,56.33
2019-03-05T02:03:15.041Z,56.92
2019-03-05T02:05:51.203Z,57.40
2019-03-05T02:08:27.060Z,57.78
2019-03-05T02:11:03.429Z,58.12
2019-03-05T02:13:39.275Z,58.29
2019-03-05T02:16:15.231Z,58.56
2019-03-05T02:18:51.089Z,58.74
2019-03-05T02:21:26.942Z,58.86
2019-03-05T02:24:05.767Z,59.34
2019-03-05T02:26:54.219Z,59.62
2019-03-05T02:29:42.447Z,59.38
2019-03-05T02:32:41.040Z,59.61
2019-03-05T02:35:19.858Z,59.33
2019-03-05T02:38:07.935Z,59.12
2019-03-05T02:40:52.799Z,59.01
2019-03-05T02:43:49.712Z,58.98
2019-03-05T02:46:31.596Z,58.92
2019-03-05T02:49:11.287Z,58.74
2019-03-05T02:51:55.503Z,58.66
2019-03-05T02:54:34.427Z,58.42
2019-03-05T02:57:09.489Z,58.33
2019-03-05T02:59:45.434Z,58.42
2019-03-05T03:02:25.999Z,58.42
2019-03-05T03:05:03.388Z,58.46
2019-03-05T03:07:39.442Z,58.43
2019-03-05T03:10:17.943Z,58.32
2019-03-05T03:12:53.704Z,58.22
2019-03-05T03:15:29.564Z,58.14
2019-03-05T03:18:05.424Z,58.27
2019-03-05T03:20:41.162Z,57.98
2019-03-05T03:23:17.027Z,58.03
2019-03-05T03:25:52.875Z,57.77
2019-03-05T03:28:28.734Z,57.55
2019-03-05T03:31:04.606Z,57.66
2019-03-05T03:33:40.439Z,57.46
2019-03-05T03:36:17.632Z,57.29
2019-03-05T03:38:53.481Z,57.24
2019-03-05T03:41:29.606Z,57.13
2019-03-05T03:44:05.401Z,57.28
2019-03-05T03:46:41.132Z,57.35
2019-03-05T03:49:16.986Z,57.51
2019-03-05T03:51:52.744Z,57.68
2019-03-05T03:54:28.599Z,57.68
2019-03-05T03:57:04.547Z,57.95
2019-03-05T03:59:40.323Z,57.79
2019-03-05T04:02:16.171Z,57.93
2019-03-05T04:04:51.913Z,57.84
2019-03-05T04:07:27.979Z,57.86
2019-03-05T04:10:05.261Z,58.03
2019-03-05T04:12:41.121Z,58.08
2019-03-05T04:15:19.021Z,58.12
2019-03-05T04:17:54.883Z,58.02
2019-03-05T04:20:32.152Z,57.98
2019-03-05T04:23:08.017Z,58.05
2019-03-05T04:25:43.778Z,58.16
2019-03-05T04:28:19.719Z,58.24
2019-03-05T04:30:55.579Z,58.32
2019-03-05T04:33:31.427Z,58.32
2019-03-05T04:36:07.388Z,58.20
2019-03-05T04:38:44.159Z,58.38
2019-03-05T04:41:20.009Z,58.38
2019-03-05T04:43:55.880Z,58.39
2019-03-05T04:46:33.260Z,58.51
2019-03-05T04:49:10.636Z,58.58
2019-03-05T04:51:54.072Z,58.34
2019-03-05T04:54:29.923Z,58.52
2019-03-05T04:57:05.681Z,58.38
2019-03-05T04:59:41.528Z,58.42
2019-03-05T05:02:17.399Z,58.48
2019-03-05T05:04:53.252Z,58.42
2019-03-05T05:07:28.985Z,58.42
2019-03-05T05:10:07.143Z,58.57
2019-03-05T05:12:42.955Z,58.52
2019-03-05T05:15:30.068Z,58.50
2019-03-05T05:18:06.033Z,58.54
2019-03-05T05:20:41.898Z,58.47
2019-03-05T05:23:17.748Z,58.50
2019-03-05T05:25:53.594Z,58.41
2019-03-05T05:28:30.392Z,57.96
2019-03-05T05:31:06.336Z,57.87
2019-03-05T05:33:42.128Z,57.74
2019-03-05T05:36:17.935Z,57.60
2019-03-05T05:38:53.989Z,57.73
2019-03-05T05:41:30.341Z,57.82
2019-03-05T05:44:06.106Z,57.63
2019-03-05T05:46:41.896Z,57.23
2019-03-05T05:49:17.677Z,57.13
2019-03-05T05:51:53.575Z,57.09
2019-03-05T05:54:29.358Z,56.79
2019-03-05T05:57:05.391Z,56.67
2019-03-05T05:59:41.254Z,56.28
2019-03-05T06:02:17.087Z,56.35
2019-03-05T06:04:52.930Z,56.38
2019-03-05T06:07:28.866Z,56.38
2019-03-05T06:10:08.130Z,56.28
2019-03-05T06:12:45.006Z,56.12
2019-03-05T06:15:20.860Z,55.86
2019-03-05T06:17:56.602Z,55.88
2019-03-05T06:20:32.355Z,55.84
2019-03-05T06:23:08.208Z,55.52
2019-03-05T06:25:44.082Z,55.34
2019-03-05T06:28:19.891Z,55.12
2019-03-05T06:30:55.793Z,54.88
2019-03-05T06:33:31.640Z,54.86
2019-03-05T06:36:07.894Z,54.85
2019-03-05T06:38:43.757Z,55.12
2019-03-05T06:41:19.604Z,55.05
2019-03-05T06:44:13.276Z,55.25
2019-03-05T06:46:49.132Z,55.36
2019-03-05T06:49:24.980Z,55.20
2019-03-05T06:52:00.737Z,55.34
2019-03-05T06:54:36.483Z,55.18
2019-03-05T06:57:12.333Z,55.20
2019-03-05T06:59:48.186Z,55.09
2019-03-05T07:02:24.051Z,55.00
2019-03-05T07:04:59.790Z,55.00
2019-03-05T07:07:35.656Z,55.10
2019-03-05T07:10:17.134Z,55.08
2019-03-05T07:12:55.187Z,55.08
2019-03-05T07:15:52.089Z,55.39
2019-03-05T07:18:31.016Z,55.64
2019-03-05T07:21:25.206Z,55.94
2019-03-05T07:24:37.712Z,55.96
2019-03-05T07:27:13.574Z,56.32
2019-03-05T07:29:49.221Z,56.54
2019-03-05T07:32:25.083Z,56.50
2019-03-05T07:35:00.819Z,56.58
2019-03-05T07:37:36.885Z,56.39
2019-03-05T07:40:12.745Z,56.15
2019-03-05T07:42:48.584Z,55.31
2019-03-05T07:45:25.439Z,55.10
2019-03-05T07:48:01.537Z,54.67
2019-03-05T07:50:37.384Z,54.58
2019-03-05T07:53:13.232Z,54.11
2019-03-05T07:55:49.368Z,54.59
2019-03-05T07:58:25.361Z,54.19
2019-03-05T08:01:01.202Z,53.04
2019-03-05T08:03:38.094Z,53.36
2019-03-05T08:06:13.841Z,52.40
2019-03-05T08:09:26.570Z,52.26
2019-03-05T08:12:25.058Z,51.68
2019-03-05T08:15:12.142Z,51.98
2019-03-05T08:17:48.008Z,52.22
2019-03-05T08:20:23.871Z,52.45
2019-03-05T08:22:59.726Z,52.52
2019-03-05T08:25:35.576Z,51.83
2019-03-05T08:28:12.553Z,51.27
2019-03-05T08:30:49.220Z,50.31
2019-03-05T08:33:24.977Z,50.19
2019-03-05T08:36:00.832Z,50.53
2019-03-05T08:38:36.797Z,49.19
2019-03-05T08:41:12.744Z,50.50
2019-03-05T08:43:48.702Z,49.44
2019-03-05T08:46:24.553Z,49.40
2019-03-05T08:49:01.127Z,49.34
2019-03-05T08:51:36.980Z,48.39
2019-03-05T08:54:12.826Z,48.45
2019-03-05T08:56:48.579Z,48.32
2019-03-05T08:59:24.646Z,48.91
2019-03-05T09:02:00.501Z,47.96
2019-03-05T09:04:36.462Z,47.69
2019-03-05T09:07:12.623Z,47.45
2019-03-05T09:09:48.477Z,48.03
2019-03-05T09:12:24.327Z,47.98
2019-03-05T09:15:01.618Z,46.96
2019-03-05T09:17:37.717Z,46.43
2019-03-05T09:20:18.430Z,46.22
2019-03-05T09:22:54.302Z,45.46
2019-03-05T09:25:30.040Z,46.79
2019-03-05T09:28:07.394Z,47.39
2019-03-05T09:30:43.494Z,47.26
2019-03-05T09:33:20.381Z,45.72
2019-03-05T09:35:57.246Z,45.73
2019-03-05T09:38:33.219Z,46.09
2019-03-05T09:41:09.759Z,45.42
2019-03-05T09:43:45.622Z,45.67
2019-03-05T09:46:21.492Z,44.88
2019-03-05T09:48:57.336Z,45.28
2019-03-05T09:51:33.198Z,44.93
2019-03-05T09:54:09.044Z,44.90
2019-03-05T09:56:44.807Z,44.77
2019-03-05T09:59:21.776Z,44.74
2019-03-05T10:01:57.468Z,45.19
2019-03-05T10:04:33.277Z,44.57
2019-03-05T10:07:18.526Z,44.70
2019-03-05T10:09:46.725Z,43.18
2019-03-05T10:12:22.793Z,43.70
2019-03-05T10:14:58.640Z,43.58
2019-03-05T10:17:37.790Z,43.12
2019-03-05T10:20:17.011Z,43.51
2019-03-05T10:22:52.859Z,43.09
2019-03-05T10:25:29.334Z,42.60
2019-03-05T10:28:06.113Z,42.96
2019-03-05T10:30:46.064Z,44.16
2019-03-05T10:33:22.116Z,44.16
2019-03-05T10:35:58.074Z,42.68
2019-03-05T10:38:34.141Z,42.05
2019-03-05T10:41:10.244Z,42.59
2019-03-05T10:43:46.035Z,42.79
2019-03-05T10:46:22.101Z,42.32
2019-03-05T10:48:57.963Z,42.90
2019-03-05T10:51:33.834Z,43.60
2019-03-05T10:54:09.677Z,42.02
2019-03-05T10:56:45.513Z,42.59
2019-03-05T10:59:21.378Z,43.88
2019-03-05T11:01:57.319Z,42.01
2019-03-05T11:04:33.074Z,42.49
2019-03-05T11:07:08.931Z,43.18
2019-03-05T11:09:44.778Z,43.54
2019-03-05T11:12:20.741Z,43.97
2019-03-05T11:14:56.596Z,44.97
2019-03-05T11:17:33.796Z,44.70
2019-03-05T11:20:10.162Z,44.22
2019-03-05T11:22:46.101Z,44.78
2019-03-05T11:25:22.870Z,44.66
2019-03-05T11:27:58.730Z,44.56
2019-03-05T11:30:37.291Z,45.46
2019-03-05T11:33:13.311Z,45.54
2019-03-05T11:35:49.274Z,44.56
2019-03-05T11:38:25.120Z,41.02
2019-03-05T11:41:00.971Z,42.10
2019-03-05T11:43:37.041Z,41.55
2019-03-05T11:46:14.294Z,43.55
2019-03-05T11:48:50.169Z,47.95
2019-03-05T11:51:26.071Z,54.43
2019-03-05T11:54:01.982Z,58.10
2019-03-05T11:56:37.728Z,59.61
2019-03-05T11:59:13.589Z,61.13
2019-03-05T12:01:50.064Z,61.13
2019-03-05T12:04:25.918Z,61.54
2019-03-05T12:07:01.763Z,61.43
2019-03-05T12:09:37.618Z,61.36
2019-03-05T12:12:13.731Z,60.52
2019-03-05T12:14:49.629Z,61.03
2019-03-05T12:17:25.486Z,62.91
2019-03-05T12:20:01.336Z,62.01
2019-03-05T12:22:37.297Z,62.75
2019-03-05T12:25:18.846Z,61.95
2019-03-05T12:27:54.749Z,61.98
2019-03-05T12:30:37.254Z,61.15
2019-03-05T12:33:13.102Z,60.63
2019-03-05T12:35:49.167Z,59.23
2019-03-05T12:38:25.013Z,58.13
2019-03-05T12:41:00.879Z,56.62
2019-03-05T12:43:36.736Z,55.60
2019-03-05T12:46:12.992Z,56.51
2019-03-05T12:48:48.851Z,56.12
2019-03-05T12:51:24.702Z,55.69
2019-03-05T12:54:00.870Z,56.53
2019-03-05T12:56:36.720Z,56.84
2019-03-05T12:59:12.678Z,56.74
2019-03-05T13:01:48.524Z,56.55
2019-03-05T13:04:24.385Z,55.99
2019-03-05T13:07:00.234Z,56.97
2019-03-05T13:09:36.075Z,56.12
2019-03-05T13:12:11.948Z,55.15
2019-03-05T13:14:47.793Z,54.24
2019-03-05T13:17:23.742Z,53.76
2019-03-05T13:19:59.602Z,52.74
2019-03-05T13:22:35.466Z,52.45
2019-03-05T13:25:13.983Z,51.59
2019-03-05T13:27:49.720Z,50.52
2019-03-05T13:30:27.762Z,49.24
2019-03-05T13:33:03.598Z,49.66
2019-03-05T13:35:39.433Z,49.37
2019-03-05T13:38:15.236Z,48.33
2019-03-05T13:40:51.462Z,48.18
2019-03-05T13:43:27.315Z,47.49
2019-03-05T13:46:03.157Z,48.13
2019-03-05T13:48:58.982Z,48.27
2019-03-05T13:51:49.479Z,48.15
2019-03-05T13:54:37.313Z,47.80
2019-03-05T13:57:39.083Z,46.64
2019-03-05T14:00:15.753Z,47.57
2019-03-05T14:03:03.280Z,46.83
2019-03-05T14:05:52.342Z,47.68
2019-03-05T14:08:48.979Z,47.35
2019-03-05T14:11:24.948Z,47.83
2019-03-05T14:14:00.791Z,48.07
2019-03-05T14:16:36.538Z,48.37
2019-03-05T14:19:12.399Z,48.31
2019-03-05T14:21:48.262Z,47.88
2019-03-05T14:24:24.116Z,45.02
2019-03-05T14:26:59.986Z,44.50
2019-03-05T14:29:35.952Z,44.32
2019-03-05T14:32:11.977Z,44.44
2019-03-05T14:34:50.805Z,45.47
2019-03-05T14:37:26.963Z,45.10
2019-03-05T14:40:22.891Z,45.89
2019-03-05T14:42:40.521Z,45.76
2019-03-05T14:45:19.435Z,45.47
2019-03-05T14:47:58.201Z,44.70
2019-03-05T14:50:34.346Z,44.52
2019-03-05T14:53:10.377Z,44.73
2019-03-05T14:55:46.457Z,45.40
2019-03-05T14:58:22.335Z,45.35
2019-03-05T15:00:58.144Z,45.55
2019-03-05T15:03:35.133Z,45.35
2019-03-05T15:06:10.988Z,45.63
2019-03-05T15:08:46.852Z,45.63
2019-03-05T15:11:22.698Z,45.77
2019-03-05T15:13:58.657Z,45.81
2019-03-05T15:16:34.539Z,46.07
2019-03-05T15:19:20.847Z,46.39
2019-03-05T15:21:47.878Z,46.73
2019-03-05T15:24:23.742Z,46.57
2019-03-05T15:26:59.550Z,46.55
2019-03-05T15:29:35.431Z,47.33
2019-03-05T15:32:11.242Z,47.31
2019-03-05T15:34:47.125Z,47.67
2019-03-05T15:37:23.017Z,48.06
2019-03-05T15:39:59.337Z,48.37
2019-03-05T15:42:35.323Z,48.67
2019-03-05T15:45:13.986Z,49.03
2019-03-05T15:47:49.876Z,49.48
2019-03-05T15:50:30.158Z,49.84
2019-03-05T15:53:06.140Z,49.83
2019-03-05T15:55:42.562Z,50.10
2019-03-05T15:58:18.506Z,49.88
2019-03-05T16:00:54.357Z,49.95
2019-03-05T16:03:31.345Z,50.21
2019-03-05T16:06:07.201Z,50.48
2019-03-05T16:08:43.159Z,51.12
2019-03-05T16:11:19.008Z,50.97
2019-03-05T16:13:56.570Z,51.48
2019-03-05T16:16:32.352Z,51.10
2019-03-05T16:19:08.197Z,50.96
2019-03-05T16:21:44.066Z,50.36
2019-03-05T16:24:19.914Z,50.43
2019-03-05T16:26:57.844Z,50.47
2019-03-05T16:29:35.304Z,50.52
2019-03-05T16:32:29.078Z,50.61
2019-03-05T16:35:07.196Z,51.51
2019-03-05T16:37:44.584Z,52.13
2019-03-05T16:40:40.922Z,52.81
2019-03-05T16:43:29.219Z,53.81
2019-03-05T16:46:15.450Z,54.51
2019-03-05T16:48:59.906Z,55.52
2019-03-05T16:51:40.279Z,56.43
2019-03-05T16:54:20.633Z,57.37
2019-03-05T16:57:14.608Z,60.04
2019-03-05T16:59:53.251Z,60.60
2019-03-05T17:02:36.662Z,61.17
2019-03-05T17:05:19.790Z,61.80
2019-03-05T17:07:57.370Z,61.95
2019-03-05T17:10:46.855Z,61.95
2019-03-05T17:13:22.810Z,61.49
2019-03-05T17:15:58.869Z,62.23
2019-03-05T17:18:35.029Z,62.25
2019-03-05T17:21:10.884Z,62.38
2019-03-05T17:23:47.856Z,62.56
2019-03-05T17:26:23.711Z,63.06
2019-03-05T17:28:59.579Z,69.54
2019-03-05T17:31:35.313Z,72.86
2019-03-05T17:34:12.170Z,74.96
2019-03-05T17:36:48.460Z,76.69
2019-03-05T17:39:25.460Z,77.85
2019-03-05T17:42:01.495Z,78.76
2019-03-05T17:44:37.868Z,79.65
2019-03-05T17:47:13.821Z,79.35
2019-03-05T17:49:49.886Z,79.69
2019-03-05T17:52:25.950Z,79.03
2019-03-05T17:55:02.110Z,79.35
2019-03-05T17:57:38.873Z,79.38
2019-03-05T18:00:33.165Z,79.14
2019-03-05T18:03:09.224Z,78.94
2019-03-05T18:05:45.080Z,79.41
2019-03-05T18:08:20.934Z,78.55
2019-03-05T18:10:56.986Z,78.60
2019-03-05T18:13:33.050Z,78.01
2019-03-05T18:16:09.525Z,77.51
2019-03-05T18:18:45.576Z,77.35
2019-03-05T18:21:21.529Z,77.46
2019-03-05T18:23:57.394Z,78.02
2019-03-05T18:26:33.244Z,78.08
2019-03-05T18:29:09.409Z,77.40
2019-03-05T18:31:45.251Z,78.21
2019-03-05T18:34:21.004Z,77.37
2019-03-05T18:36:57.893Z,77.34
2019-03-05T18:39:33.639Z,77.46
2019-03-05T18:42:09.698Z,77.49
2019-03-05T18:44:45.647Z,77.00
2019-03-05T18:47:21.513Z,76.71
2019-03-05T18:49:57.687Z,77.74
2019-03-05T18:52:33.942Z,77.57
2019-03-05T18:55:12.840Z,77.31
2019-03-05T18:57:49.419Z,76.67
2019-03-05T19:00:29.672Z,77.36
2019-03-05T19:03:17.619Z,77.80
2019-03-05T19:05:53.483Z,77.17
2019-03-05T19:08:36.917Z,77.15
2019-03-05T19:11:13.377Z,77.11
2019-03-05T19:13:49.222Z,77.20
2019-03-05T19:16:24.974Z,77.11
2019-03-05T19:19:00.833Z,77.35
2019-03-05T19:21:36.589Z,77.46
2019-03-05T19:24:12.448Z,77.62
2019-03-05T19:26:48.303Z,77.45
2019-03-05T19:29:24.859Z,77.41
2019-03-05T19:32:00.719Z,77.83
2019-03-05T19:34:36.576Z,78.30
2019-03-05T19:37:12.635Z,78.12
2019-03-05T19:39:48.484Z,78.16
2019-03-05T19:42:24.451Z,78.16
2019-03-05T19:45:00.547Z,78.35
2019-03-05T19:47:37.284Z,78.66
2019-03-05T19:50:15.595Z,78.99
2019-03-05T19:52:52.044Z,79.22
2019-03-05T19:55:29.169Z,78.92
2019-03-05T19:58:12.564Z,78.91
2019-03-05T20:01:03.253Z,79.20
2019-03-05T20:03:40.270Z,79.21
2019-03-05T20:06:16.271Z,79.15
2019-03-05T20:08:52.316Z,78.85
2019-03-05T20:11:28.073Z,79.02
2019-03-05T20:14:05.336Z,78.98
2019-03-05T20:16:41.121Z,79.08
2019-03-05T20:19:16.898Z,78.83
2019-03-05T20:21:52.679Z,78.68
2019-03-05T20:24:28.478Z,79.25
2019-03-05T20:27:04.200Z,79.27
2019-03-05T20:29:40.314Z,79.57
2019-03-05T20:32:16.126Z,79.79
2019-03-05T20:34:52.778Z,79.73
2019-03-05T20:37:28.584Z,80.01
2019-03-05T20:40:07.274Z,80.13
2019-03-05T20:42:43.413Z,80.27
2019-03-05T20:45:29.020Z,80.16
2019-03-05T20:48:05.649Z,80.17
2019-03-05T20:50:41.738Z,80.05
2019-03-05T20:53:17.481Z,79.77
2019-03-05T20:55:53.458Z,79.83
2019-03-05T20:58:29.325Z,79.79
2019-03-05T21:01:07.541Z,79.97
2019-03-05T21:03:43.346Z,80.02
2019-03-05T21:06:19.134Z,80.15
2019-03-05T21:08:55.018Z,80.34
2019-03-05T21:11:30.898Z,80.02
2019-03-05T21:14:06.638Z,79.97
2019-03-05T21:16:42.367Z,80.11
2019-03-05T21:19:18.096Z,79.78
2019-03-05T21:21:53.896Z,79.95
2019-03-05T21:24:30.038Z,80.29
2019-03-05T21:27:05.820Z,79.82
2019-03-05T21:29:41.644Z,80.04
2019-03-05T21:32:17.427Z,79.87
2019-03-05T21:34:53.207Z,79.70
2019-03-05T21:37:28.990Z,79.81
2019-03-05T21:40:08.349Z,79.73
2019-03-05T21:42:45.946Z,79.79
2019-03-05T21:45:24.706Z,79.34
2019-03-05T21:48:00.723Z,78.96
2019-03-05T21:50:36.692Z,79.07
2019-03-05T21:53:12.535Z,78.75
2019-03-05T21:55:48.386Z,78.60
2019-03-05T21:58:24.356Z,78.12
2019-03-05T22:01:00.107Z,77.91
2019-03-05T22:03:36.075Z,77.55
2019-03-05T22:06:12.144Z,77.37
2019-03-05T22:08:47.945Z,77.04
2019-03-05T22:11:23.702Z,76.94
2019-03-05T22:13:59.505Z,77.01
2019-03-05T22:16:35.276Z,77.06
2019-03-05T22:19:11.055Z,76.65
2019-03-05T22:21:46.853Z,76.86
2019-03-05T22:24:22.630Z,76.72
2019-03-05T22:26:58.428Z,76.88
2019-03-05T22:29:34.282Z,77.25
2019-03-05T22:32:10.242Z,76.75
2019-03-05T22:34:46.356Z,76.56
2019-03-05T22:37:22.270Z,76.79
2019-03-05T22:39:58.109Z,76.74
2019-03-05T22:42:33.984Z,77.03
2019-03-05T22:45:15.631Z,77.21
2019-03-05T22:47:51.420Z,77.38
2019-03-05T22:50:27.361Z,77.40
2019-03-05T22:53:03.114Z,77.50
2019-03-05T22:55:39.085Z,77.60
2019-03-05T22:58:14.933Z,77.74
2019-03-05T23:01:03.250Z,77.53
2019-03-05T23:03:42.024Z,77.58
2019-03-05T23:06:17.959Z,77.47
2019-03-05T23:08:54.426Z,77.34
2019-03-05T23:11:30.382Z,77.37
2019-03-05T23:14:06.850Z,77.18
2019-03-05T23:16:42.900Z,76.94
2019-03-05T23:19:20.296Z,76.81
2019-03-05T23:21:56.153Z,76.50
2019-03-05T23:24:32.306Z,76.30
2019-03-05T23:27:08.266Z,76.53
2019-03-05T23:29:44.234Z,76.26
2019-03-05T23:32:20.191Z,76.70
2019-03-05T23:34:56.246Z,76.70
2019-03-05T23:37:32.188Z,77.19
2019-03-05T23:40:10.200Z,77.59
2019-03-05T23:42:46.466Z,77.87
2019-03-05T23:45:22.208Z,77.88
2019-03-05T23:47:58.062Z,78.23
2019-03-05T23:50:33.823Z,77.99
2019-03-05T23:53:09.886Z,78.00
2019-03-05T23:55:45.623Z,77.52
2019-03-05T23:58:21.482Z,77.63
